createdAt,value
2018-07-09T00:00:36.499Z,12.00
2018-07-09T00:03:06.953Z,11.90
2018-07-09T00:05:37.890Z,11.90
2018-07-09T00:08:06.388Z,11.90
2018-07-09T00:10:46.372Z,11.80
2018-07-09T00:13:14.592Z,11.90
2018-07-09T00:15:43.039Z,11.80
2018-07-09T00:18:11.232Z,11.80
2018-07-09T00:20:39.543Z,11.80
2018-07-09T00:23:07.736Z,11.80
2018-07-09T00:25:36.937Z,11.80
2018-07-09T00:28:05.413Z,11.80
2018-07-09T00:30:33.634Z,11.70
2018-07-09T00:33:01.928Z,11.70
2018-07-09T00:35:30.136Z,11.70
2018-07-09T00:37:58.328Z,11.70
2018-07-09T00:40:26.549Z,11.70
2018-07-09T00:42:54.784Z,11.60
2018-07-09T00:45:22.995Z,11.60
2018-07-09T00:47:51.400Z,11.60
2018-07-09T00:50:19.636Z,11.60
2018-07-09T00:52:47.901Z,11.50
2018-07-09T00:55:16.103Z,11.50
2018-07-09T00:57:44.300Z,11.50
2018-07-09T01:00:12.520Z,11.50
2018-07-09T01:02:40.753Z,11.50
2018-07-09T01:05:08.959Z,11.40
2018-07-09T01:07:37.524Z,11.40
2018-07-09T01:10:05.797Z,11.40
2018-07-09T01:12:34.025Z,11.40
2018-07-09T01:15:02.254Z,11.40
2018-07-09T01:17:30.448Z,11.40
2018-07-09T01:19:58.660Z,11.40
2018-07-09T01:22:26.896Z,11.40
2018-07-09T01:24:55.119Z,11.40
2018-07-09T01:27:23.356Z,11.30
2018-07-09T01:29:51.645Z,11.30
2018-07-09T01:32:19.845Z,11.30
2018-07-09T01:34:48.040Z,11.20
2018-07-09T01:37:16.440Z,11.20
2018-07-09T01:39:44.635Z,11.20
2018-07-09T01:42:12.878Z,11.10
2018-07-09T01:44:41.105Z,11.10
2018-07-09T01:47:09.296Z,11.10
2018-07-09T01:49:37.504Z,11.10
2018-07-09T01:52:05.710Z,11.10
2018-07-09T01:54:33.922Z,11.10
2018-07-09T01:57:02.107Z,11.10
2018-07-09T01:59:30.319Z,11.00
2018-07-09T02:01:58.544Z,11.00
2018-07-09T02:04:26.750Z,11.00
2018-07-09T02:06:54.963Z,11.00
2018-07-09T02:09:23.161Z,11.00
2018-07-09T02:11:51.348Z,11.00
2018-07-09T02:14:19.569Z,11.00
2018-07-09T02:16:47.776Z,11.00
2018-07-09T02:19:16.002Z,11.00
2018-07-09T02:21:44.196Z,11.00
2018-07-09T02:24:12.403Z,11.00
2018-07-09T02:26:40.626Z,11.00
2018-07-09T02:29:08.848Z,10.90
2018-07-09T02:31:37.485Z,10.90
2018-07-09T02:34:05.737Z,10.90
2018-07-09T02:36:33.944Z,10.90
2018-07-09T02:39:02.424Z,10.90
2018-07-09T02:41:30.680Z,10.80
2018-07-09T02:43:58.880Z,10.80
2018-07-09T02:46:27.093Z,10.80
2018-07-09T02:48:55.280Z,10.80
2018-07-09T02:51:23.544Z,10.70
2018-07-09T02:53:51.754Z,10.70
2018-07-09T02:56:19.952Z,10.70
2018-07-09T02:58:48.160Z,10.70
2018-07-09T03:01:16.400Z,10.70
2018-07-09T03:03:44.556Z,10.70
2018-07-09T03:06:12.778Z,10.70
2018-07-09T03:08:41.941Z,10.70
2018-07-09T03:11:10.169Z,10.70
2018-07-09T03:13:38.426Z,10.60
2018-07-09T03:16:06.680Z,10.60
2018-07-09T03:18:34.912Z,10.60
2018-07-09T03:21:03.128Z,10.60
2018-07-09T03:23:31.336Z,10.60
2018-07-09T03:25:59.564Z,10.60
2018-07-09T03:28:27.777Z,10.60
2018-07-09T03:30:55.993Z,10.60
2018-07-09T03:33:24.196Z,10.60
2018-07-09T03:35:52.411Z,10.60
2018-07-09T03:38:20.634Z,10.50
2018-07-09T03:40:48.824Z,10.60
2018-07-09T03:43:17.073Z,10.60
2018-07-09T03:45:45.288Z,10.60
2018-07-09T03:48:13.484Z,10.60
2018-07-09T03:50:41.745Z,10.60
2018-07-09T03:53:09.948Z,10.60
2018-07-09T03:55:38.144Z,10.60
2018-07-09T03:58:06.341Z,10.60
2018-07-09T04:00:34.648Z,10.70
2018-07-09T04:03:02.861Z,10.70
2018-07-09T04:05:31.085Z,10.70
2018-07-09T04:07:59.284Z,10.80
2018-07-09T04:10:27.574Z,10.80
2018-07-09T04:12:55.794Z,10.80
2018-07-09T04:15:24.007Z,10.90
2018-07-09T04:17:52.216Z,10.90
2018-07-09T04:20:20.424Z,10.90
2018-07-09T04:22:48.670Z,11.00
2018-07-09T04:25:16.876Z,11.00
2018-07-09T04:27:45.071Z,11.10
2018-07-09T04:30:13.296Z,11.10
2018-07-09T04:32:41.503Z,11.10
2018-07-09T04:35:09.717Z,11.10
2018-07-09T04:39:59.243Z,11.20
2018-07-09T04:42:28.224Z,11.30
2018-07-09T04:44:56.537Z,11.30
2018-07-09T04:47:24.836Z,11.40
2018-07-09T04:49:53.228Z,11.40
2018-07-09T04:52:21.561Z,11.50
2018-07-09T04:54:49.966Z,11.60
2018-07-09T04:57:18.273Z,11.60
2018-07-09T04:59:46.619Z,11.70
2018-07-09T05:02:15.042Z,11.80
2018-07-09T05:04:43.273Z,11.80
2018-07-09T05:07:11.547Z,11.90
2018-07-09T05:09:39.792Z,12.00
2018-07-09T05:12:08.134Z,12.00
2018-07-09T05:14:36.351Z,12.10
2018-07-09T05:17:04.596Z,12.20
2018-07-09T05:19:32.928Z,12.30
2018-07-09T05:22:01.171Z,12.30
2018-07-09T05:24:29.456Z,12.40
2018-07-09T05:26:57.804Z,12.50
2018-07-09T05:29:26.057Z,12.60
2018-07-09T05:31:54.272Z,12.70
2018-07-09T05:34:22.608Z,12.80
2018-07-09T05:36:50.845Z,12.90
2018-07-09T05:39:19.225Z,13.00
2018-07-09T05:41:47.464Z,13.10
2018-07-09T05:44:15.711Z,13.20
2018-07-09T05:46:44.131Z,13.30
2018-07-09T05:49:12.600Z,13.40
2018-07-09T05:51:40.823Z,13.50
2018-07-09T05:54:09.163Z,13.70
2018-07-09T05:56:37.644Z,13.80
2018-07-09T05:59:05.899Z,13.90
2018-07-09T06:01:34.174Z,14.00
2018-07-09T06:04:02.465Z,14.10
2018-07-09T06:06:30.703Z,14.30
2018-07-09T06:08:59.023Z,14.40
2018-07-09T06:11:27.382Z,14.60
2018-07-09T06:13:55.659Z,14.80
2018-07-09T06:16:23.906Z,15.00
2018-07-09T06:18:52.240Z,15.30
2018-07-09T06:21:20.461Z,15.60
2018-07-09T06:23:48.699Z,15.70
2018-07-09T06:26:16.968Z,16.00
2018-07-09T06:28:45.234Z,16.20
2018-07-09T06:31:13.568Z,16.30
2018-07-09T06:33:42.292Z,16.50
2018-07-09T06:36:10.694Z,16.70
2018-07-09T06:38:39.109Z,16.80
2018-07-09T06:41:07.572Z,17.00
2018-07-09T06:43:35.811Z,17.10
2018-07-09T06:46:04.074Z,17.30
2018-07-09T06:48:32.651Z,17.40
2018-07-09T06:51:00.986Z,17.50
2018-07-09T06:53:29.258Z,17.60
2018-07-09T06:55:57.611Z,17.70
2018-07-09T07:00:53.863Z,17.80
2018-07-09T07:03:22.216Z,17.90
2018-07-09T07:05:50.427Z,18.00
2018-07-09T07:08:18.889Z,18.10
2018-07-09T07:10:47.157Z,18.20
2018-07-09T07:13:15.496Z,18.30
2018-07-09T07:15:43.703Z,18.40
2018-07-09T07:18:12.139Z,18.40
2018-07-09T07:20:40.574Z,18.50
2018-07-09T07:23:08.860Z,18.60
2018-07-09T07:25:37.134Z,18.70
2018-07-09T07:28:05.494Z,18.80
2018-07-09T07:30:33.730Z,18.90
2018-07-09T07:33:02.057Z,19.00
2018-07-09T07:35:30.317Z,19.10
2018-07-09T07:37:58.747Z,19.30
2018-07-09T07:40:26.985Z,19.40
2018-07-09T07:42:55.369Z,19.50
2018-07-09T07:45:23.853Z,19.70
2018-07-09T07:47:52.169Z,19.70
2018-07-09T07:50:20.525Z,19.80
2018-07-09T07:52:48.687Z,19.90
2018-07-09T07:55:17.037Z,19.90
2018-07-09T07:57:45.544Z,19.90
2018-07-09T08:00:13.857Z,20.00
2018-07-09T08:02:42.104Z,20.00
2018-07-09T08:05:10.398Z,20.00
2018-07-09T08:07:38.692Z,20.10
2018-07-09T08:10:07.646Z,20.10
2018-07-09T08:15:04.500Z,20.30
2018-07-09T08:17:32.708Z,20.30
2018-07-09T08:20:00.971Z,20.40
2018-07-09T08:22:29.289Z,20.50
2018-07-09T08:24:57.586Z,20.50
2018-07-09T08:27:25.853Z,20.60
2018-07-09T08:29:54.099Z,20.70
2018-07-09T08:32:22.424Z,20.70
2018-07-09T08:34:50.652Z,20.80
2018-07-09T08:37:18.956Z,20.90
2018-07-09T08:39:47.341Z,21.00
2018-07-09T08:42:15.632Z,21.10
2018-07-09T08:44:44.293Z,21.20
2018-07-09T08:47:13.523Z,21.30
2018-07-09T08:49:41.858Z,21.40
2018-07-09T08:52:10.082Z,21.50
2018-07-09T08:54:38.364Z,21.60
2018-07-09T08:57:06.606Z,21.70
2018-07-09T08:59:35.197Z,21.80
2018-07-09T09:02:03.437Z,21.90
2018-07-09T09:04:31.779Z,22.00
2018-07-09T09:07:00.150Z,22.00
2018-07-09T09:09:28.472Z,22.10
2018-07-09T09:11:56.732Z,22.20
2018-07-09T09:14:24.975Z,22.30
2018-07-09T09:16:53.222Z,22.40
2018-07-09T09:19:21.453Z,22.50
2018-07-09T09:21:49.865Z,22.50
2018-07-09T09:24:18.088Z,22.60
2018-07-09T09:26:46.331Z,22.70
2018-07-09T09:29:14.737Z,22.70
2018-07-09T09:31:43.022Z,22.80
2018-07-09T09:34:11.274Z,22.90
2018-07-09T09:36:39.520Z,22.90
2018-07-09T09:39:09.159Z,22.90
2018-07-09T09:41:37.788Z,23.00
2018-07-09T09:44:06.029Z,23.10
2018-07-09T09:46:34.341Z,23.20
2018-07-09T09:49:02.589Z,23.30
2018-07-09T09:51:31.020Z,23.40
2018-07-09T09:53:59.325Z,23.40
2018-07-09T09:56:27.599Z,23.40
2018-07-09T09:58:55.934Z,23.50
2018-07-09T10:01:24.164Z,23.60
2018-07-09T10:03:52.683Z,23.60
2018-07-09T10:06:20.935Z,23.70
2018-07-09T10:08:49.212Z,23.70
2018-07-09T10:11:17.467Z,23.80
2018-07-09T10:13:46.037Z,23.80
2018-07-09T10:16:14.324Z,23.80
2018-07-09T10:18:42.950Z,23.90
2018-07-09T10:21:11.387Z,24.00
2018-07-09T10:23:39.887Z,24.00
2018-07-09T10:26:08.465Z,24.10
2018-07-09T10:28:37.009Z,24.10
2018-07-09T10:31:05.437Z,24.10
2018-07-09T10:33:33.667Z,24.10
2018-07-09T10:36:02.348Z,24.10
2018-07-09T10:38:30.621Z,24.10
2018-07-09T10:40:59.796Z,24.20
2018-07-09T10:43:28.624Z,24.20
2018-07-09T10:45:57.136Z,24.30
2018-07-09T10:48:25.348Z,24.30
2018-07-09T10:50:53.880Z,24.40
2018-07-09T10:53:22.198Z,24.50
2018-07-09T10:55:50.909Z,24.60
2018-07-09T11:00:47.176Z,24.80
2018-07-09T11:03:15.381Z,24.90
2018-07-09T11:05:43.628Z,25.00
2018-07-09T11:08:11.923Z,25.20
2018-07-09T11:10:40.164Z,25.30
2018-07-09T11:13:08.503Z,25.40
2018-07-09T11:15:36.740Z,25.60
2018-07-09T11:18:04.996Z,25.70
2018-07-09T11:20:33.237Z,25.90
2018-07-09T11:23:01.451Z,26.00
2018-07-09T11:25:29.684Z,26.20
2018-07-09T11:27:57.932Z,26.30
2018-07-09T11:30:26.195Z,26.40
2018-07-09T11:32:54.508Z,26.40
2018-07-09T11:35:22.785Z,26.40
2018-07-09T11:37:51.144Z,26.40
2018-07-09T11:40:19.352Z,26.40
2018-07-09T11:42:47.612Z,26.40
2018-07-09T11:45:15.824Z,26.60
2018-07-09T11:47:44.121Z,26.80
2018-07-09T11:50:12.451Z,27.00
2018-07-09T11:52:40.735Z,27.10
2018-07-09T11:55:09.001Z,27.20
2018-07-09T11:57:37.204Z,27.40
2018-07-09T12:00:05.619Z,27.50
2018-07-09T12:02:33.911Z,27.70
2018-07-09T12:05:02.189Z,28.00
2018-07-09T12:07:30.476Z,28.30
2018-07-09T12:09:58.761Z,28.50
2018-07-09T12:12:26.992Z,28.50
2018-07-09T12:14:55.254Z,28.30
2018-07-09T12:17:23.749Z,28.10
2018-07-09T12:19:51.998Z,28.00
2018-07-09T12:22:20.246Z,27.90
2018-07-09T12:24:48.445Z,28.00
2018-07-09T12:27:16.667Z,28.00
2018-07-09T12:29:44.928Z,28.20
2018-07-09T12:32:13.197Z,28.30
2018-07-09T12:34:41.456Z,28.30
2018-07-09T12:37:09.664Z,28.10
2018-07-09T12:39:38.025Z,27.80
2018-07-09T12:42:06.238Z,27.60
2018-07-09T12:44:34.573Z,27.30
2018-07-09T12:47:02.813Z,27.20
2018-07-09T12:49:31.113Z,27.10
2018-07-09T12:51:59.400Z,27.20
2018-07-09T12:54:27.655Z,27.40
2018-07-09T12:56:55.941Z,27.60
2018-07-09T12:59:24.205Z,27.70
2018-07-09T13:01:52.439Z,27.90
2018-07-09T13:04:20.831Z,27.90
2018-07-09T13:06:49.083Z,27.80
2018-07-09T13:09:17.349Z,27.60
2018-07-09T13:11:45.573Z,27.40
2018-07-09T13:14:13.839Z,27.40
2018-07-09T13:16:42.142Z,27.50
2018-07-09T13:19:10.369Z,27.70
2018-07-09T13:21:38.625Z,27.80
2018-07-09T13:24:06.908Z,28.00
2018-07-09T13:26:35.134Z,28.30
2018-07-09T13:29:03.377Z,28.60
2018-07-09T13:31:31.616Z,28.80
2018-07-09T13:33:59.940Z,29.10
2018-07-09T13:36:28.178Z,29.40
2018-07-09T13:38:56.442Z,29.60
2018-07-09T13:41:24.676Z,29.70
2018-07-09T13:43:53.377Z,29.60
2018-07-09T13:46:21.630Z,29.40
2018-07-09T13:48:49.985Z,29.20
2018-07-09T13:51:18.297Z,29.00
2018-07-09T13:53:46.537Z,28.70
2018-07-09T13:56:14.803Z,28.50
2018-07-09T13:58:43.160Z,28.30
2018-07-09T14:01:12.027Z,28.20
2018-07-09T14:03:40.896Z,28.10
2018-07-09T14:06:09.225Z,28.00
2018-07-09T14:08:37.552Z,28.10
2018-07-09T14:11:05.869Z,28.30
2018-07-09T14:13:34.121Z,28.30
2018-07-09T14:16:02.424Z,28.10
2018-07-09T14:18:30.859Z,27.80
2018-07-09T14:20:59.047Z,27.60
2018-07-09T14:23:27.315Z,27.60
2018-07-09T14:25:55.572Z,27.90
2018-07-09T14:28:23.824Z,28.30
2018-07-09T14:30:52.065Z,28.90
2018-07-09T14:33:20.312Z,29.40
2018-07-09T14:35:48.657Z,29.80
2018-07-09T14:38:16.953Z,30.20
2018-07-09T14:40:45.298Z,30.40
2018-07-09T14:43:13.644Z,30.50
2018-07-09T14:45:42.582Z,30.40
2018-07-09T14:48:10.792Z,30.30
2018-07-09T14:50:39.085Z,30.50
2018-07-09T14:53:07.363Z,31.00
2018-07-09T14:55:35.637Z,31.50
2018-07-09T14:58:03.901Z,31.90
2018-07-09T15:00:32.197Z,32.30
2018-07-09T15:03:00.401Z,32.60
2018-07-09T15:05:28.660Z,32.90
2018-07-09T15:07:56.930Z,33.10
2018-07-09T15:10:25.204Z,33.40
2018-07-09T15:12:53.513Z,33.40
2018-07-09T15:15:21.734Z,33.40
2018-07-09T15:17:50.004Z,33.40
2018-07-09T15:20:18.295Z,33.40
2018-07-09T15:22:46.572Z,33.40
2018-07-09T15:25:14.880Z,33.30
2018-07-09T15:27:43.104Z,33.30
2018-07-09T15:30:23.021Z,33.10
2018-07-09T15:32:51.253Z,32.90
2018-07-09T15:35:19.453Z,32.60
2018-07-09T15:40:16.098Z,32.00
2018-07-09T15:42:44.391Z,31.80
2018-07-09T15:45:12.662Z,31.80
2018-07-09T15:50:09.000Z,31.50
2018-07-09T15:52:43.813Z,31.20
2018-07-09T15:55:12.113Z,31.00
2018-07-09T15:57:40.362Z,31.10
2018-07-09T16:00:08.706Z,31.30
2018-07-09T16:02:37.064Z,31.60
2018-07-09T16:05:05.353Z,31.90
2018-07-09T16:07:33.596Z,32.20
2018-07-09T16:10:01.818Z,32.10
2018-07-09T16:12:30.155Z,31.80
2018-07-09T16:14:58.448Z,31.40
2018-07-09T16:17:26.986Z,31.30
2018-07-09T16:19:55.360Z,31.20
2018-07-09T16:22:23.584Z,31.30
2018-07-09T16:24:51.808Z,31.70
2018-07-09T16:27:20.121Z,32.20
2018-07-09T16:29:48.422Z,32.70
2018-07-09T16:32:16.678Z,33.10
2018-07-09T16:34:45.025Z,33.00
2018-07-09T16:37:13.363Z,32.90
2018-07-09T16:39:41.641Z,32.70
2018-07-09T16:42:09.837Z,32.50
2018-07-09T16:44:38.079Z,32.30
2018-07-09T16:47:06.486Z,32.20
2018-07-09T16:49:34.703Z,32.10
2018-07-09T16:52:02.997Z,31.80
2018-07-09T16:54:31.216Z,31.40
2018-07-09T16:56:59.444Z,31.00
2018-07-09T16:59:27.768Z,30.60
2018-07-09T17:01:56.026Z,30.40
2018-07-09T17:04:24.273Z,30.30
2018-07-09T17:06:52.499Z,30.40
2018-07-09T17:09:20.725Z,30.70
2018-07-09T17:11:49.025Z,31.30
2018-07-09T17:14:17.356Z,32.00
2018-07-09T17:16:45.696Z,32.80
2018-07-09T17:19:14.004Z,33.40
2018-07-09T17:21:42.238Z,33.70
2018-07-09T17:24:10.475Z,33.60
2018-07-09T17:26:38.794Z,32.90
2018-07-09T17:29:06.916Z,32.00
2018-07-09T17:31:35.192Z,31.20
2018-07-09T17:34:03.428Z,30.50
2018-07-09T17:36:31.644Z,29.90
2018-07-09T17:38:59.893Z,29.90
2018-07-09T17:41:28.128Z,30.10
2018-07-09T17:43:56.375Z,30.50
2018-07-09T17:46:24.897Z,30.90
2018-07-09T17:48:53.141Z,31.20
2018-07-09T17:51:21.468Z,31.60
2018-07-09T17:53:50.028Z,31.80
2018-07-09T17:56:18.299Z,31.80
2018-07-09T17:58:46.572Z,31.60
2018-07-09T18:01:14.780Z,31.20
2018-07-09T18:03:43.116Z,31.10
2018-07-09T18:06:11.489Z,30.90
2018-07-09T18:08:39.692Z,30.40
2018-07-09T18:11:07.933Z,29.70
2018-07-09T18:13:36.174Z,29.10
2018-07-09T18:16:04.392Z,28.50
2018-07-09T18:18:32.634Z,28.00
2018-07-09T18:21:00.840Z,27.70
2018-07-09T18:25:57.095Z,27.40
2018-07-09T18:28:25.478Z,27.30
2018-07-09T18:30:53.659Z,27.20
2018-07-09T18:33:21.867Z,27.20
2018-07-09T18:35:50.092Z,27.00
2018-07-09T18:38:18.369Z,26.80
2018-07-09T18:40:46.596Z,26.40
2018-07-09T18:43:14.840Z,26.10
2018-07-09T18:45:43.333Z,25.70
2018-07-09T18:48:11.744Z,25.40
2018-07-09T18:50:39.997Z,25.20
2018-07-09T18:53:08.400Z,24.90
2018-07-09T18:55:36.717Z,24.60
2018-07-09T18:58:04.986Z,24.50
2018-07-09T19:00:33.261Z,24.30
2018-07-09T19:03:01.682Z,24.10
2018-07-09T19:05:41.276Z,23.90
2018-07-09T19:08:09.558Z,23.70
2018-07-09T19:10:38.197Z,23.50
2018-07-09T19:13:06.440Z,23.40
2018-07-09T19:15:34.795Z,23.20
2018-07-09T19:18:15.708Z,23.00
2018-07-09T19:21:56.869Z,22.80
2018-07-09T19:24:24.159Z,22.70
2018-07-09T19:26:51.426Z,22.50
2018-07-09T19:29:18.679Z,22.30
2018-07-09T19:31:45.899Z,22.10
2018-07-09T19:34:13.111Z,22.00
2018-07-09T19:36:40.443Z,21.90
2018-07-09T19:39:08.235Z,21.70
2018-07-09T19:41:35.529Z,21.60
2018-07-09T19:44:02.700Z,21.50
2018-07-09T19:46:29.920Z,21.40
2018-07-09T19:48:57.166Z,21.30
2018-07-09T19:51:24.443Z,21.10
2018-07-09T19:53:51.791Z,21.10
2018-07-09T19:56:18.998Z,20.90
2018-07-09T19:58:46.211Z,20.80
2018-07-09T20:01:13.472Z,20.70
2018-07-09T20:03:40.714Z,20.60
2018-07-09T20:06:07.945Z,20.50
2018-07-09T20:08:40.445Z,20.40
2018-07-09T20:11:13.117Z,20.40
2018-07-09T20:14:11.219Z,20.20
2018-07-09T20:16:43.790Z,20.10
2018-07-09T20:19:11.061Z,19.90
2018-07-09T20:21:38.369Z,19.80
2018-07-09T20:24:05.541Z,19.60
2018-07-09T20:26:32.752Z,19.50
2018-07-09T20:28:59.968Z,19.40
2018-07-09T20:31:27.345Z,19.30
2018-07-09T20:33:54.640Z,19.20
2018-07-09T20:36:21.923Z,19.10
2018-07-09T20:38:49.164Z,19.00
2018-07-09T20:41:16.352Z,18.90
2018-07-09T20:43:43.561Z,18.90
2018-07-09T20:46:10.765Z,18.80
2018-07-09T20:48:37.964Z,18.80
2018-07-09T20:51:05.166Z,18.80
2018-07-09T20:53:32.443Z,18.70
2018-07-09T20:55:59.851Z,18.70
2018-07-09T20:58:27.039Z,18.60
2018-07-09T21:00:54.238Z,18.40
2018-07-09T21:03:21.562Z,18.30
2018-07-09T21:05:48.753Z,18.20
2018-07-09T21:08:15.965Z,18.10
2018-07-09T21:10:43.168Z,18.00
2018-07-09T21:13:10.395Z,18.00
2018-07-09T21:15:37.649Z,17.90
2018-07-09T21:18:04.811Z,17.90
2018-07-09T21:20:32.020Z,17.90
2018-07-09T21:22:59.260Z,17.80
2018-07-09T21:25:26.448Z,17.80
2018-07-09T21:27:53.689Z,17.70
2018-07-09T21:30:20.885Z,17.60
2018-07-09T21:32:48.111Z,17.50
2018-07-09T21:35:15.313Z,17.40
2018-07-09T21:37:42.623Z,17.30
2018-07-09T21:40:09.829Z,17.20
2018-07-09T21:42:37.070Z,17.10
2018-07-09T21:45:04.365Z,17.00
2018-07-09T21:47:31.542Z,17.00
2018-07-09T21:49:58.753Z,16.90
2018-07-09T21:52:25.964Z,16.80
2018-07-09T21:54:53.153Z,16.70
2018-07-09T21:57:20.353Z,16.60
2018-07-09T21:59:47.548Z,16.60
2018-07-09T22:02:14.808Z,16.50
2018-07-09T22:04:41.984Z,16.50
2018-07-09T22:07:09.205Z,16.40
2018-07-09T22:09:36.401Z,16.30
2018-07-09T22:12:03.601Z,16.30
2018-07-09T22:14:30.794Z,16.20
2018-07-09T22:16:57.984Z,16.10
2018-07-09T22:19:25.217Z,16.10
2018-07-09T22:21:52.487Z,16.00
2018-07-09T22:24:19.672Z,16.00
2018-07-09T22:26:46.908Z,16.00
2018-07-09T22:29:14.179Z,16.00
2018-07-09T22:31:42.409Z,16.00
2018-07-09T22:34:10.665Z,16.00
2018-07-09T22:36:38.931Z,16.00
2018-07-09T22:39:07.199Z,16.00
2018-07-09T22:41:35.886Z,16.10
2018-07-09T22:44:14.927Z,16.00
2018-07-09T22:46:43.196Z,16.00
2018-07-09T22:49:12.373Z,16.00
2018-07-09T22:51:40.611Z,16.00
2018-07-09T22:54:08.943Z,16.00
2018-07-09T22:56:37.169Z,16.00
2018-07-09T22:59:05.449Z,15.90
2018-07-09T23:01:33.657Z,15.90
2018-07-09T23:04:01.872Z,15.80
2018-07-09T23:06:30.176Z,15.80
2018-07-09T23:13:54.188Z,15.70
2018-07-09T23:16:45.161Z,15.70
2018-07-09T23:19:27.707Z,15.70
2018-07-09T23:22:07.404Z,15.70
2018-07-09T23:24:34.629Z,15.70
2018-07-09T23:27:01.869Z,15.70
2018-07-09T23:29:29.075Z,15.80
2018-07-09T23:31:56.300Z,15.80
2018-07-09T23:34:23.552Z,15.90
2018-07-09T23:36:50.763Z,15.90
2018-07-09T23:39:17.962Z,16.00
2018-07-09T23:41:45.212Z,16.00
2018-07-09T23:44:12.438Z,16.00
2018-07-09T23:46:43.137Z,16.00
2018-07-09T23:49:10.370Z,16.00
2018-07-09T23:51:37.585Z,16.00
2018-07-09T23:54:04.837Z,16.00
2018-07-09T23:58:53.403Z,16.00
